Time;durP1;ratioP1;P1;durP2;ratioP2;P2;SDS_P1;SDS_P2;PMS_P1;PMS_P2;Temp;Humidity;BMP_temperature;BMP_pressure;BME280_temperature;BME280_humidity;BME280_pressure;Samples;Min_cycle;Max_cycle;Signal;HPM_P1;HPM_P2
2021/12/24 00:00:33;;;;;;;0.40;0.40;;;6.70;95.60;;;;;;5074371;28;20185;-67
2021/12/24 00:02:59;;;;;;;0.80;0.80;;;6.60;95.50;;;;;;5074732;28;20185;-67
2021/12/24 00:05:25;;;;;;;0.40;0.40;;;6.40;95.70;;;;;;5074369;28;20306;-67
2021/12/24 00:07:51;;;;;;;0.40;0.40;;;6.50;96.10;;;;;;5074474;28;20170;-67
2021/12/24 00:10:17;;;;;;;0.40;0.40;;;6.70;96.30;;;;;;5074044;28;20215;-67
2021/12/24 00:12:48;;;;;;;0.40;0.40;;;6.70;95.80;;;;;;5074357;28;20247;-67
2021/12/24 00:15:47;;;;;;;0.40;0.40;;;6.70;95.60;;;;;;5074346;28;20384;-67
2021/12/24 00:18:20;;;;;;;0.40;0.40;;;6.70;95.90;;;;;;5073998;28;20631;-67
2021/12/24 00:37:06;;;;;;;0.30;0.30;;;6.70;95.90;;;;;;5074054;28;20223;-69
2021/12/24 00:39:35;;;;;;;0.40;0.40;;;6.70;96.00;;;;;;5072402;28;20190;-69
2021/12/24 00:42:01;;;;;;;0.30;0.30;;;6.70;96.10;;;;;;5073813;28;20158;-69
2021/12/24 00:44:27;;;;;;;0.30;0.30;;;6.70;96.10;;;;;;5072407;28;20296;-69
2021/12/24 00:46:52;;;;;;;0.80;0.80;;;6.80;96.00;;;;;;5073940;28;20190;-69
2021/12/24 00:49:18;;;;;;;0.40;0.40;;;6.90;95.90;;;;;;5073477;28;20157;-69
2021/12/24 00:52:06;;;;;;;0.40;0.40;;;6.90;95.60;;;;;;5073778;28;20169;-69
2021/12/24 00:57:13;;;;;;;0.40;0.40;;;6.80;95.30;;;;;;5073852;28;20671;-69
2021/12/24 00:59:39;;;;;;;0.33;0.33;;;6.80;95.70;;;;;;5072781;28;20187;-69
2021/12/24 01:02:04;;;;;;;0.30;0.30;;;6.90;95.70;;;;;;5073687;28;20363;-69
2021/12/24 01:04:31;;;;;;;0.33;0.33;;;6.90;95.50;;;;;;5073357;28;20194;-70
2021/12/24 01:06:56;;;;;;;0.40;0.40;;;7.00;95.50;;;;;;5073794;28;20242;-69
2021/12/24 01:09:22;;;;;;;0.30;0.30;;;7.10;95.60;;;;;;5073325;28;20213;-69
2021/12/24 01:11:48;;;;;;;0.30;0.30;;;7.20;95.20;;;;;;5073521;28;20662;-69
2021/12/24 01:14:14;;;;;;;0.40;0.40;;;7.20;95.10;;;;;;5073295;28;20686;-69
2021/12/24 01:16:48;;;;;;;0.30;0.30;;;7.10;95.00;;;;;;5073639;28;20169;-67
2021/12/24 01:19:19;;;;;;;0.40;0.40;;;7.10;95.20;;;;;;5073329;28;20187;-67
2021/12/24 01:24:30;;;;;;;0.35;0.35;;;7.20;95.30;;;;;;5073547;28;20195;-67
2021/12/24 01:27:11;;;;;;;0.35;0.35;;;7.30;95.40;;;;;;5072113;28;20675;-67
2021/12/24 01:29:49;;;;;;;0.40;0.40;;;7.40;95.20;;;;;;5073189;28;20235;-67
2021/12/24 01:38:20;;;;;;;0.40;0.40;;;7.40;95.70;;;;;;5073618;28;20242;-67
2021/12/24 01:41:19;;;;;;;0.40;0.40;;;7.30;95.30;;;;;;5073845;28;20209;-67
2021/12/24 01:43:28;;;;;;;0.30;0.30;;;7.30;95.30;;;;;;5073740;28;20201;-67
2021/12/24 01:45:56;;;;;;;0.40;0.40;;;7.10;95.00;;;;;;5072987;28;20681;-67
2021/12/24 01:48:23;;;;;;;0.40;0.40;;;7.00;95.30;;;;;;5072784;28;20272;-67
2021/12/24 01:50:50;;;;;;;1.35;1.35;;;6.90;95.80;;;;;;5073253;28;20193;-67
2021/12/24 01:53:17;;;;;;;0.40;0.40;;;6.90;96.00;;;;;;5073036;28;20276;-67
2021/12/24 01:55:45;;;;;;;0.40;0.40;;;6.90;96.50;;;;;;5073103;28;20632;-67
2021/12/24 01:58:11;;;;;;;0.40;0.40;;;6.90;96.90;;;;;;5072974;28;20173;-67
2021/12/24 02:00:44;;;;;;;0.73;0.73;;;6.90;96.20;;;;;;5072772;28;20211;-67
2021/12/24 02:03:11;;;;;;;0.40;0.40;;;6.90;96.30;;;;;;5072986;28;20251;-67
2021/12/24 02:05:37;;;;;;;0.30;0.30;;;6.80;96.40;;;;;;5073212;28;20203;-67
2021/12/24 02:08:04;;;;;;;0.40;0.40;;;6.80;96.50;;;;;;5072889;28;20172;-66
2021/12/24 02:10:29;;;;;;;0.40;0.40;;;6.80;96.40;;;;;;5071965;28;20183;-67
2021/12/24 02:12:56;;;;;;;0.30;0.30;;;6.70;96.30;;;;;;5076673;28;20269;-67
2021/12/24 02:18:44;;;;;;;0.40;0.40;;;6.70;96.80;;;;;;5076387;28;20177;-67
2021/12/24 02:29:06;;;;;;;0.40;0.40;;;6.70;97.30;;;;;;5076450;28;20204;-67
2021/12/24 02:31:33;;;;;;;0.50;0.50;;;6.70;96.80;;;;;;5076344;28;20257;-67
2021/12/24 02:33:58;;;;;;;0.40;0.40;;;6.60;96.80;;;;;;5076287;28;20644;-67
2021/12/24 02:36:26;;;;;;;0.40;0.40;;;6.60;97.20;;;;;;5076116;28;20189;-67
2021/12/24 02:38:52;;;;;;;0.38;0.38;;;6.70;97.50;;;;;;5076125;28;20593;-67
2021/12/24 02:41:20;;;;;;;0.40;0.40;;;6.70;97.60;;;;;;5076129;28;20193;-66
2021/12/24 02:43:47;;;;;;;0.30;0.30;;;6.70;97.50;;;;;;5076036;28;20221;-67
2021/12/24 02:46:25;;;;;;;0.30;0.30;;;6.60;97.10;;;;;;5075876;28;20289;-70
2021/12/24 02:54:07;;;;;;;0.40;0.40;;;6.80;97.10;;;;;;5075806;28;20228;-69
2021/12/24 02:56:36;;;;;;;0.30;0.30;;;6.80;97.10;;;;;;5074621;28;20635;-69
2021/12/24 02:59:07;;;;;;;0.40;0.40;;;6.90;97.10;;;;;;5075480;28;20178;-69
2021/12/24 03:01:37;;;;;;;0.60;0.60;;;7.00;96.90;;;;;;5075702;28;20182;-69
2021/12/24 03:04:05;;;;;;;0.40;0.40;;;7.00;96.70;;;;;;5075753;28;20190;-69
2021/12/24 03:06:34;;;;;;;0.30;0.30;;;7.00;97.00;;;;;;5075695;28;20197;-69
2021/12/24 03:09:00;;;;;;;0.30;0.30;;;7.10;97.10;;;;;;5075624;28;20163;-69
2021/12/24 03:11:26;;;;;;;0.40;0.40;;;7.10;96.90;;;;;;5075604;28;20169;-69
2021/12/24 03:13:53;;;;;;;0.40;0.40;;;7.20;96.60;;;;;;5075580;28;20189;-67
2021/12/24 03:16:20;;;;;;;0.38;0.38;;;7.20;96.30;;;;;;5075381;28;20205;-67
2021/12/24 03:18:47;;;;;;;0.40;0.40;;;7.10;96.40;;;;;;5075139;28;20169;-67
2021/12/24 03:21:22;;;;;;;0.40;0.40;;;7.10;96.90;;;;;;5075342;28;20166;-67
2021/12/24 03:26:41;;;;;;;0.40;0.40;;;7.30;97.10;;;;;;5075415;28;20207;-67
2021/12/24 03:29:09;;;;;;;0.30;0.30;;;7.40;96.30;;;;;;5075086;28;20525;-67
2021/12/24 03:31:37;;;;;;;0.40;0.40;;;7.50;96.00;;;;;;5075283;28;20164;-67
2021/12/24 03:34:04;;;;;;;0.40;0.40;;;7.50;96.10;;;;;;5074944;28;20598;-67
2021/12/24 03:36:30;;;;;;;0.30;0.30;;;7.60;95.90;;;;;;5075663;28;20201;-67
2021/12/24 03:38:56;;;;;;;0.33;0.33;;;7.70;96.00;;;;;;5074938;28;20167;-67
2021/12/24 03:41:24;;;;;;;0.73;0.73;;;7.80;95.80;;;;;;5074950;28;20400;-67
2021/12/24 03:43:50;;;;;;;0.30;0.30;;;7.70;95.70;;;;;;5074742;28;20201;-67
2021/12/24 03:46:20;;;;;;;0.30;0.30;;;7.80;95.80;;;;;;5074871;28;20278;-67
2021/12/24 03:51:28;;;;;;;0.40;0.40;;;7.90;95.60;;;;;;5075179;28;20276;-67
2021/12/24 03:56:40;;;;;;;0.40;0.40;;;7.70;95.20;;;;;;5075136;28;20579;-67
2021/12/24 03:59:07;;;;;;;0.40;0.40;;;7.80;95.50;;;;;;5073017;28;20651;-67
2021/12/24 04:01:33;;;;;;;0.40;0.40;;;7.80;95.70;;;;;;5074624;28;20174;-67
2021/12/24 04:03:59;;;;;;;0.40;0.40;;;7.70;95.60;;;;;;5074517;28;20289;-67
2021/12/24 04:06:24;;;;;;;0.30;0.30;;;7.70;95.70;;;;;;5074501;28;20332;-67
2021/12/24 04:08:50;;;;;;;0.40;0.40;;;7.80;96.20;;;;;;5074164;28;20180;-67
2021/12/24 04:11:17;;;;;;;0.30;0.30;;;7.80;96.10;;;;;;5074353;28;20183;-67
2021/12/24 04:13:43;;;;;;;0.40;0.40;;;7.60;96.90;;;;;;5074205;28;20591;-67
2021/12/24 04:16:09;;;;;;;0.40;0.40;;;7.70;97.20;;;;;;5074163;28;20172;-67
2021/12/24 04:18:50;;;;;;;0.30;0.30;;;7.90;97.00;;;;;;5074169;28;20172;-67
2021/12/24 04:26:44;;;;;;;0.30;0.30;;;8.10;96.10;;;;;;5074194;28;20276;-67
2021/12/24 04:29:10;;;;;;;0.30;0.30;;;8.20;96.40;;;;;;5073870;28;20206;-67
2021/12/24 04:31:44;;;;;;;0.40;0.40;;;8.20;95.90;;;;;;5073879;28;20171;-67
2021/12/24 04:34:12;;;;;;;0.30;0.30;;;8.30;95.70;;;;;;5073117;28;20191;-67
2021/12/24 05:02:11;;;;;;;0.40;0.40;;;8.30;95.20;;;;;;5073815;28;20175;-67
2021/12/24 05:04:27;;;;;;;0.30;0.30;;;8.30;95.20;;;;;;5073986;28;20200;-67
2021/12/24 05:07:02;;;;;;;0.30;0.30;;;8.30;95.60;;;;;;5073447;28;20227;-67
2021/12/24 05:09:30;;;;;;;0.30;0.30;;;8.20;95.80;;;;;;5073401;28;20174;-67
2021/12/24 05:11:56;;;;;;;0.30;0.30;;;8.20;95.90;;;;;;5073563;28;20168;-67
2021/12/24 05:14:21;;;;;;;0.40;0.40;;;8.30;95.70;;;;;;5073520;28;20680;-67
2021/12/24 05:16:50;;;;;;;0.40;0.40;;;8.30;95.60;;;;;;5073371;28;20171;-67
2021/12/24 05:21:49;;;;;;;0.30;0.30;;;8.30;95.70;;;;;;5073741;28;20185;-67
2021/12/24 05:24:19;;;;;;;0.30;0.30;;;8.30;95.70;;;;;;5073305;28;20570;-67
2021/12/24 05:26:51;;;;;;;0.40;0.40;;;8.20;95.70;;;;;;5073415;28;20206;-67
2021/12/24 05:29:17;;;;;;;0.30;0.30;;;8.20;96.10;;;;;;5073197;28;20221;-67
2021/12/24 05:31:44;;;;;;;0.40;0.40;;;8.20;96.20;;;;;;5073372;28;20183;-67
2021/12/24 05:34:10;;;;;;;0.57;0.57;;;8.20;95.80;;;;;;5073170;28;20186;-67
2021/12/24 05:36:36;;;;;;;0.40;0.40;;;8.20;95.90;;;;;;5073347;28;20179;-67
2021/12/24 05:39:03;;;;;;;0.37;0.37;;;8.20;96.00;;;;;;5073086;28;20179;-67
2021/12/24 05:41:29;;;;;;;0.30;0.30;;;8.20;96.00;;;;;;5073291;28;20428;-67
2021/12/24 05:43:55;;;;;;;0.37;0.37;;;8.20;96.00;;;;;;5073041;28;20196;-67
2021/12/24 05:46:21;;;;;;;0.30;0.30;;;8.20;95.80;;;;;;5076550;28;20479;-67
2021/12/24 05:48:46;;;;;;;0.30;0.30;;;8.20;95.80;;;;;;5076851;28;20718;-67
2021/12/24 05:51:12;;;;;;;0.40;0.40;;;8.10;96.10;;;;;;5077146;28;20169;-66
2021/12/24 05:53:38;;;;;;;0.40;0.40;;;8.00;96.40;;;;;;5076869;28;20184;-67
2021/12/24 05:56:04;;;;;;;0.30;0.30;;;8.10;96.30;;;;;;5076823;28;20169;-67
2021/12/24 05:58:30;;;;;;;0.40;0.40;;;8.10;96.40;;;;;;5076605;28;20632;-68
2021/12/24 06:00:56;;;;;;;0.30;0.30;;;8.10;96.50;;;;;;5076829;28;20243;-67
2021/12/24 06:03:23;;;;;;;0.30;0.30;;;8.10;96.80;;;;;;5076717;28;20483;-67
2021/12/24 06:05:49;;;;;;;0.38;0.38;;;8.10;96.80;;;;;;5076643;28;20222;-67
2021/12/24 06:08:15;;;;;;;0.40;0.40;;;8.10;96.40;;;;;;5076660;28;20164;-67
2021/12/24 06:10:41;;;;;;;0.30;0.30;;;8.10;96.50;;;;;;5076758;28;20406;-67
2021/12/24 06:13:07;;;;;;;0.30;0.30;;;8.10;96.30;;;;;;5076744;28;20589;-67
2021/12/24 06:15:41;;;;;;;0.63;0.63;;;8.10;96.30;;;;;;5076712;28;20216;-66
2021/12/24 06:20:47;;;;;;;0.40;0.40;;;8.00;96.40;;;;;;5076642;28;20177;-67
2021/12/24 06:23:12;;;;;;;0.30;0.30;;;8.00;96.40;;;;;;5076483;28;20212;-67
2021/12/24 06:25:38;;;;;;;0.40;0.40;;;8.00;96.30;;;;;;5076248;28;20656;-67
2021/12/24 06:28:04;;;;;;;0.50;0.50;;;8.00;96.80;;;;;;5076146;28;20181;-67
2021/12/24 06:30:31;;;;;;;0.30;0.30;;;8.00;96.90;;;;;;5076785;28;20241;-67
2021/12/24 06:32:57;;;;;;;0.40;0.40;;;7.90;96.10;;;;;;5076357;28;20189;-67
2021/12/24 06:35:24;;;;;;;0.32;0.32;;;7.90;96.30;;;;;;5076152;28;20602;-67
2021/12/24 06:37:54;;;;;;;0.30;0.30;;;7.90;96.50;;;;;;5076221;28;20175;-67
2021/12/24 06:40:20;;;;;;;0.30;0.30;;;7.80;96.30;;;;;;5076090;28;20289;-67
2021/12/24 06:42:46;;;;;;;0.30;0.30;;;7.80;96.50;;;;;;5075962;28;20199;-67
2021/12/24 06:45:11;;;;;;;0.33;0.33;;;7.80;96.40;;;;;;5074752;28;20175;-67
2021/12/24 06:47:37;;;;;;;0.40;0.40;;;7.80;96.30;;;;;;5076174;28;20530;-67
2021/12/24 06:50:04;;;;;;;0.30;0.30;;;7.70;96.40;;;;;;5075872;28;20175;-67
2021/12/24 06:52:30;;;;;;;0.30;0.30;;;7.70;96.90;;;;;;5075719;28;20175;-67
2021/12/24 06:54:55;;;;;;;0.40;0.40;;;7.60;97.10;;;;;;5075794;28;20515;-67
2021/12/24 06:57:23;;;;;;;0.40;0.40;;;7.70;96.90;;;;;;5075039;28;20640;-67
2021/12/24 06:59:49;;;;;;;0.30;0.30;;;7.70;96.90;;;;;;5075401;28;20187;-67
2021/12/24 07:02:15;;;;;;;0.30;0.30;;;7.60;96.50;;;;;;5075800;28;20225;-67
2021/12/24 07:04:41;;;;;;;0.40;0.40;;;7.60;96.40;;;;;;5075456;28;20274;-66
2021/12/24 07:07:06;;;;;;;0.40;0.40;;;7.50;97.00;;;;;;5075538;28;20201;-67
2021/12/24 07:09:32;;;;;;;0.37;0.37;;;7.50;97.50;;;;;;5075471;28;20938;-67
2021/12/24 07:11:58;;;;;;;1.33;1.33;;;7.40;97.50;;;;;;5075717;28;20211;-67
2021/12/24 07:14:24;;;;;;;0.30;0.30;;;7.40;97.70;;;;;;5075395;28;20247;-66
2021/12/24 07:16:50;;;;;;;0.30;0.30;;;7.40;97.90;;;;;;5075575;28;20248;-67
2021/12/24 07:19:16;;;;;;;0.35;0.35;;;7.50;98.30;;;;;;5075268;28;20411;-67
2021/12/24 07:21:42;;;;;;;0.40;0.40;;;7.50;98.00;;;;;;5075281;28;20177;-66
2021/12/24 07:24:08;;;;;;;0.40;0.40;;;7.50;97.80;;;;;;5075216;28;20193;-66
2021/12/24 07:26:34;;;;;;;0.30;0.30;;;7.50;98.10;;;;;;5075455;28;20200;-67
2021/12/24 07:29:00;;;;;;;0.40;0.40;;;7.60;98.10;;;;;;5074975;28;20173;-67
2021/12/24 07:31:26;;;;;;;0.30;0.30;;;7.60;97.60;;;;;;5075287;28;20196;-67
2021/12/24 07:33:52;;;;;;;0.40;0.40;;;7.60;97.50;;;;;;5075189;28;20220;-66
2021/12/24 07:36:18;;;;;;;0.30;0.30;;;7.60;97.90;;;;;;5075219;28;20175;-66
2021/12/24 07:38:44;;;;;;;0.30;0.30;;;7.60;97.80;;;;;;5075010;28;20220;-67
2021/12/24 07:41:09;;;;;;;0.40;0.40;;;7.60;97.60;;;;;;5074990;28;20178;-67
2021/12/24 07:43:35;;;;;;;0.40;0.40;;;7.50;97.70;;;;;;5075004;28;20281;-67
2021/12/24 07:46:01;;;;;;;0.40;0.40;;;7.50;97.70;;;;;;5074746;28;20197;-66
2021/12/24 07:48:28;;;;;;;0.30;0.30;;;7.60;98.00;;;;;;5074690;28;20736;-67
2021/12/24 07:53:22;;;;;;;0.40;0.40;;;7.70;97.70;;;;;;5074886;28;20195;-66
2021/12/24 07:55:48;;;;;;;0.40;0.40;;;7.60;97.80;;;;;;5074685;28;20175;-67
2021/12/24 07:58:15;;;;;;;0.40;0.40;;;7.60;98.10;;;;;;5074497;28;20188;-67
2021/12/24 08:00:41;;;;;;;0.40;0.40;;;7.70;98.10;;;;;;5074659;28;20193;-66
2021/12/24 08:03:07;;;;;;;0.30;0.30;;;7.80;98.10;;;;;;5073253;28;20202;-67
2021/12/24 08:05:37;;;;;;;0.30;0.30;;;7.80;98.00;;;;;;5074361;28;20176;-67
2021/12/24 08:08:03;;;;;;;0.40;0.40;;;7.70;98.10;;;;;;5073684;28;20172;-67
2021/12/24 08:10:31;;;;;;;0.50;0.50;;;7.70;98.30;;;;;;5074277;28;20177;-66
2021/12/24 08:12:56;;;;;;;0.40;0.40;;;7.80;98.20;;;;;;5074300;28;20533;-67
2021/12/24 08:15:22;;;;;;;0.40;0.40;;;7.80;98.00;;;;;;5074224;28;20256;-67
2021/12/24 08:17:48;;;;;;;0.30;0.30;;;7.70;97.90;;;;;;5074334;28;20167;-67
2021/12/24 08:20:15;;;;;;;0.40;0.40;;;7.70;98.30;;;;;;5073984;28;20249;-67
2021/12/24 08:22:41;;;;;;;0.40;0.40;;;7.70;98.50;;;;;;5074054;28;20232;-67
2021/12/24 08:25:08;;;;;;;0.40;0.40;;;7.70;98.60;;;;;;5074204;28;20585;-67
2021/12/24 08:27:34;;;;;;;0.40;0.40;;;7.50;98.70;;;;;;5074065;28;20453;-67
2021/12/24 08:30:01;;;;;;;0.30;0.30;;;7.60;99.50;;;;;;5074011;28;20176;-67
2021/12/24 08:32:26;;;;;;;0.30;0.30;;;7.60;99.10;;;;;;5074216;28;20174;-67
2021/12/24 08:34:53;;;;;;;0.40;0.40;;;7.60;99.30;;;;;;5073871;28;20222;-66
2021/12/24 08:37:19;;;;;;;0.32;0.32;;;7.60;99.50;;;;;;5073803;28;20257;-67
2021/12/24 08:39:44;;;;;;;0.40;0.40;;;7.60;99.60;;;;;;5073711;28;20721;-67
2021/12/24 08:42:11;;;;;;;0.30;0.30;;;7.70;99.40;;;;;;5074294;28;20407;-67
2021/12/24 08:44:37;;;;;;;0.30;0.30;;;7.70;99.60;;;;;;5073606;28;20680;-67
2021/12/24 08:47:05;;;;;;;0.35;0.35;;;7.70;99.80;;;;;;5073826;28;20201;-66
2021/12/24 08:49:31;;;;;;;0.30;0.30;;;7.50;99.80;;;;;;5073561;28;20169;-67
2021/12/24 08:51:57;;;;;;;0.32;0.32;;;7.50;99.60;;;;;;5073868;28;20185;-67
2021/12/24 08:54:24;;;;;;;0.30;0.30;;;7.50;99.60;;;;;;5073587;28;20609;-66
2021/12/24 08:56:51;;;;;;;0.60;0.60;;;7.60;99.90;;;;;;5073875;28;20179;-67
2021/12/24 08:59:17;;;;;;;0.30;0.30;;;7.60;99.90;;;;;;5073257;28;20236;-67
2021/12/24 09:01:43;;;;;;;0.40;0.40;;;7.60;99.90;;;;;;5073508;28;20166;-67
2021/12/24 09:04:13;;;;;;;0.30;0.30;;;7.70;99.90;;;;;;5073346;28;20217;-67
2021/12/24 09:06:40;;;;;;;0.40;0.40;;;7.80;99.90;;;;;;5073458;28;20225;-67
2021/12/24 09:09:07;;;;;;;0.30;0.30;;;7.90;99.90;;;;;;5073400;28;20539;-67
2021/12/24 09:11:34;;;;;;;0.30;0.30;;;8.00;99.90;;;;;;5073559;28;20203;-67
2021/12/24 09:14:00;;;;;;;0.40;0.40;;;7.90;99.40;;;;;;5073352;28;20657;-67
2021/12/24 09:16:25;;;;;;;0.30;0.30;;;7.90;99.90;;;;;;5073412;28;20189;-67
2021/12/24 09:18:59;;;;;;;0.30;0.30;;;8.00;99.90;;;;;;5073239;28;20181;-67
2021/12/24 09:21:25;;;;;;;0.30;0.30;;;8.00;99.70;;;;;;5073201;28;20444;-67
2021/12/24 09:23:53;;;;;;;0.30;0.30;;;8.10;99.90;;;;;;5073292;28;20197;-67
2021/12/24 09:26:25;;;;;;;0.30;0.30;;;8.10;99.60;;;;;;5073247;28;20586;-67
2021/12/24 09:28:51;;;;;;;0.30;0.30;;;8.10;99.60;;;;;;5073083;28;20522;-67
2021/12/24 09:31:17;;;;;;;0.30;0.30;;;8.20;99.60;;;;;;5073399;28;20638;-67
2021/12/24 09:33:43;;;;;;;0.30;0.30;;;8.00;99.00;;;;;;5073241;28;20200;-66
2021/12/24 09:36:09;;;;;;;0.30;0.30;;;7.90;99.90;;;;;;5073546;28;20410;-66
2021/12/24 09:38:35;;;;;;;0.30;0.30;;;8.10;99.90;;;;;;5073143;28;20677;-67
2021/12/24 09:41:01;;;;;;;0.40;0.40;;;8.20;99.90;;;;;;5073222;28;20184;-67
2021/12/24 09:43:26;;;;;;;0.30;0.30;;;8.20;99.60;;;;;;5073006;28;20242;-67
2021/12/24 09:45:52;;;;;;;0.30;0.30;;;8.30;99.40;;;;;;5072960;28;20203;-67
2021/12/24 09:48:18;;;;;;;0.30;0.30;;;8.40;99.50;;;;;;5073048;28;20211;-67
2021/12/24 09:50:45;;;;;;;0.30;0.30;;;8.30;98.60;;;;;;5073156;28;20452;-67
2021/12/24 09:53:11;;;;;;;0.30;0.30;;;8.30;99.10;;;;;;5073106;28;20270;-67
2021/12/24 09:55:37;;;;;;;0.30;0.30;;;8.30;99.20;;;;;;5072962;28;20198;-67
2021/12/24 09:58:03;;;;;;;0.30;0.30;;;8.40;99.10;;;;;;5072831;28;20201;-66
2021/12/24 10:00:31;;;;;;;0.40;0.40;;;8.40;99.10;;;;;;5072885;28;20669;-67
2021/12/24 10:02:58;;;;;;;0.40;0.40;;;8.30;98.90;;;;;;5072890;28;20423;-67
2021/12/24 10:05:32;;;;;;;0.30;0.30;;;8.40;98.90;;;;;;5072940;28;20260;-66
2021/12/24 10:08:19;;;;;;;0.30;0.30;;;8.40;99.10;;;;;;5072934;28;20251;-67
2021/12/24 10:10:50;;;;;;;0.30;0.30;;;8.50;98.90;;;;;;5072998;28;20630;-67
2021/12/24 10:13:30;;;;;;;0.35;0.35;;;8.50;99.00;;;;;;5072854;28;20284;-67
2021/12/24 10:16:08;;;;;;;0.40;0.40;;;8.60;99.10;;;;;;5072804;28;20197;-67
2021/12/24 10:18:38;;;;;;;0.30;0.30;;;8.60;99.00;;;;;;5072656;28;20185;-67
2021/12/24 10:21:14;;;;;;;0.30;0.30;;;8.60;99.20;;;;;;5072778;28;20172;-67
2021/12/24 10:23:55;;;;;;;0.30;0.30;;;8.60;98.80;;;;;;5072826;28;20197;-66
2021/12/24 10:26:24;;;;;;;0.30;0.30;;;8.60;99.00;;;;;;5072893;28;20376;-67
2021/12/24 10:28:56;;;;;;;0.30;0.30;;;8.70;99.10;;;;;;5072592;28;20191;-67
2021/12/24 10:31:26;;;;;;;0.40;0.40;;;8.70;99.10;;;;;;5072700;28;20212;-67
2021/12/24 10:34:14;;;;;;;0.30;0.30;;;8.80;99.10;;;;;;5076131;28;20545;-67
2021/12/24 10:36:57;;;;;;;0.40;0.40;;;8.80;98.70;;;;;;5076307;28;20233;-67
2021/12/24 10:39:26;;;;;;;0.40;0.40;;;8.70;98.60;;;;;;5075844;28;20201;-67
2021/12/24 10:41:54;;;;;;;0.30;0.30;;;8.70;99.10;;;;;;5076021;28;20175;-67
2021/12/24 10:44:26;;;;;;;0.30;0.30;;;8.80;99.40;;;;;;5075925;28;20667;-67
2021/12/24 10:47:23;;;;;;;0.30;0.30;;;8.90;99.30;;;;;;5075842;28;20571;-66
2021/12/24 10:53:37;;;;;;;0.30;0.30;;;8.50;99.20;;;;;;5076191;28;20184;-67
2021/12/24 10:55:36;;;;;;;0.80;0.80;;;8.50;98.80;;;;;;5079565;28;20177;-67
2021/12/24 10:58:04;;;;;;;0.30;0.30;;;8.50;98.90;;;;;;5075742;28;20644;-66
2021/12/24 11:00:34;;;;;;;0.30;0.30;;;8.40;99.20;;;;;;5075688;28;20663;-66
2021/12/24 11:03:06;;;;;;;0.30;0.30;;;8.40;99.40;;;;;;5075897;28;20183;-67
2021/12/24 11:05:43;;;;;;;0.30;0.30;;;8.30;99.20;;;;;;5075822;28;20581;-67
2021/12/24 11:08:12;;;;;;;0.30;0.30;;;8.30;99.00;;;;;;5075715;28;20557;-67
2021/12/24 11:10:42;;;;;;;0.30;0.30;;;8.00;99.50;;;;;;5075702;28;20180;-67
2021/12/24 11:13:14;;;;;;;0.30;0.30;;;8.10;99.90;;;;;;5075918;28;20187;-67
2021/12/24 11:15:48;;;;;;;0.30;0.30;;;8.20;99.90;;;;;;5075536;28;20194;-67
2021/12/24 11:18:25;;;;;;;0.32;0.32;;;8.40;99.90;;;;;;5075457;28;20171;-67
2021/12/24 11:21:00;;;;;;;0.30;0.30;;;8.70;99.50;;;;;;5075552;28;20188;-67
2021/12/24 11:23:28;;;;;;;0.30;0.30;;;8.90;98.80;;;;;;5075257;28;20184;-67
2021/12/24 11:25:57;;;;;;;0.35;0.35;;;9.10;99.00;;;;;;5075215;28;20200;-67
2021/12/24 11:28:25;;;;;;;0.40;0.40;;;9.20;98.40;;;;;;5075008;28;20217;-67
2021/12/24 11:30:54;;;;;;;0.30;0.30;;;9.20;97.70;;;;;;5075285;28;20173;-67
2021/12/24 11:33:28;;;;;;;0.30;0.30;;;9.10;97.60;;;;;;5075116;28;20182;-67
2021/12/24 11:35:56;;;;;;;0.40;0.40;;;9.00;97.80;;;;;;5075253;28;20171;-66
2021/12/24 11:38:27;;;;;;;0.30;0.30;;;8.70;97.80;;;;;;5074812;28;20238;-67
2021/12/24 11:40:55;;;;;;;0.30;0.30;;;8.60;97.80;;;;;;5075037;28;20538;-67
2021/12/24 11:43:25;;;;;;;0.30;0.30;;;8.50;99.10;;;;;;5074639;28;20201;-67
2021/12/24 11:45:50;;;;;;;0.30;0.30;;;8.60;99.60;;;;;;5074861;28;20180;-67
2021/12/24 11:48:16;;;;;;;0.30;0.30;;;8.50;99.30;;;;;;5074840;28;20234;-66
2021/12/24 11:50:43;;;;;;;0.37;0.37;;;8.50;99.40;;;;;;5074951;28;20169;-67
2021/12/24 11:53:13;;;;;;;0.30;0.30;;;8.50;99.90;;;;;;5074586;28;20446;-66
2021/12/24 11:55:42;;;;;;;0.30;0.30;;;8.50;99.60;;;;;;5074664;28;20160;-67
2021/12/24 11:58:25;;;;;;;0.50;0.50;;;8.50;99.70;;;;;;5074562;28;20252;-67
2021/12/24 12:00:55;;;;;;;0.40;0.40;;;8.60;99.90;;;;;;5074984;28;20253;-67
2021/12/24 12:03:39;;;;;;;0.30;0.30;;;8.60;99.90;;;;;;5074790;28;20196;-67
2021/12/24 12:06:11;;;;;;;0.35;0.35;;;8.50;99.30;;;;;;5074678;28;20203;-66
2021/12/24 12:08:40;;;;;;;0.30;0.30;;;8.30;99.10;;;;;;5074344;28;20179;-67
2021/12/24 12:11:27;;;;;;;0.30;0.30;;;8.30;99.30;;;;;;5074452;28;20163;-67
2021/12/24 12:14:01;;;;;;;0.30;0.30;;;8.40;99.50;;;;;;5074429;28;20531;-67
2021/12/24 12:16:55;;;;;;;0.30;0.30;;;8.40;99.30;;;;;;5074374;28;20177;-67
2021/12/24 12:19:38;;;;;;;0.40;0.40;;;8.40;99.70;;;;;;5073710;28;20667;-66
2021/12/24 12:25:00;;;;;;;0.30;0.30;;;8.40;99.60;;;;;;5074322;28;20205;-67
2021/12/24 12:27:36;;;;;;;0.30;0.30;;;8.40;99.40;;;;;;5074217;28;20195;-67
2021/12/24 12:30:17;;;;;;;0.30;0.30;;;8.30;99.10;;;;;;5073864;28;20174;-67
2021/12/24 12:32:43;;;;;;;0.30;0.30;;;8.20;98.90;;;;;;5073846;28;20241;-67
2021/12/24 12:35:09;;;;;;;0.30;0.30;;;8.20;99.90;;;;;;5073892;28;20583;-67
2021/12/24 12:37:42;;;;;;;0.30;0.30;;;8.20;99.80;;;;;;5074115;28;20172;-66
2021/12/24 12:40:16;;;;;;;0.30;0.30;;;8.30;99.90;;;;;;5073764;28;20221;-66
2021/12/24 12:45:20;;;;;;;0.30;0.30;;;8.30;99.90;;;;;;5074021;28;20182;-67
2021/12/24 12:47:58;;;;;;;0.30;0.30;;;8.30;99.90;;;;;;5073850;28;20200;-67
2021/12/24 12:50:26;;;;;;;0.30;0.30;;;8.20;99.80;;;;;;5073940;28;20168;-67
2021/12/24 12:53:31;;;;;;;0.30;0.30;;;8.30;99.70;;;;;;5073775;28;20554;-67
2021/12/24 12:56:15;;;;;;;0.30;0.30;;;8.30;99.90;;;;;;5073253;28;20191;-67
2021/12/24 12:58:43;;;;;;;0.30;0.30;;;8.30;99.90;;;;;;5073529;28;20703;-67
2021/12/24 13:01:18;;;;;;;0.30;0.30;;;8.10;99.90;;;;;;5073775;28;20184;-67
2021/12/24 13:03:55;;;;;;;0.30;0.30;;;8.20;99.90;;;;;;5073680;28;20187;-67
2021/12/24 13:06:25;;;;;;;0.30;0.30;;;8.20;99.90;;;;;;5073851;28;20199;-67
2021/12/24 13:08:51;;;;;;;0.50;0.50;;;8.20;99.90;;;;;;5073427;28;20175;-67
2021/12/24 13:11:20;;;;;;;0.30;0.30;;;8.20;99.90;;;;;;5073619;28;20183;-67
2021/12/24 13:13:51;;;;;;;0.30;0.30;;;8.20;99.90;;;;;;5073411;28;20198;-67
2021/12/24 13:16:19;;;;;;;0.30;0.30;;;8.10;99.90;;;;;;5072227;28;20662;-67
2021/12/24 13:18:53;;;;;;;0.40;0.40;;;8.00;99.90;;;;;;5073201;28;20198;-67
2021/12/24 13:24:15;;;;;;;0.40;0.40;;;8.10;99.90;;;;;;5073565;28;20260;-67
2021/12/24 13:26:43;;;;;;;0.30;0.30;;;8.20;99.90;;;;;;5073280;28;20203;-67
2021/12/24 13:29:15;;;;;;;0.30;0.30;;;8.10;99.90;;;;;;5073208;28;20173;-67
2021/12/24 13:31:42;;;;;;;0.32;0.32;;;8.10;99.90;;;;;;5073422;28;20173;-67
2021/12/24 13:34:12;;;;;;;0.40;0.40;;;8.20;99.90;;;;;;5073147;28;20190;-67
2021/12/24 13:36:38;;;;;;;0.40;0.40;;;8.20;99.90;;;;;;5073176;28;20172;-67
2021/12/24 13:39:13;;;;;;;0.40;0.40;;;8.10;99.90;;;;;;5073153;28;20177;-67
2021/12/24 13:41:39;;;;;;;0.60;0.60;;;8.10;99.90;;;;;;5073380;28;20701;-67
2021/12/24 13:44:06;;;;;;;0.30;0.30;;;8.10;99.90;;;;;;5073075;28;20223;-67
2021/12/24 13:46:35;;;;;;;0.40;0.40;;;8.10;99.90;;;;;;5073223;28;20193;-67
2021/12/24 13:54:34;;;;;;;0.30;0.30;;;8.00;99.90;;;;;;5073079;28;20211;-67
2021/12/24 13:57:04;;;;;;;0.40;0.40;;;8.00;99.90;;;;;;5073015;28;20171;-67
2021/12/24 13:59:31;;;;;;;0.30;0.30;;;8.00;99.90;;;;;;5072677;28;20184;-67
2021/12/24 14:01:57;;;;;;;0.45;0.45;;;8.10;99.90;;;;;;5073186;28;20179;-67
2021/12/24 14:04:23;;;;;;;0.40;0.40;;;8.10;99.90;;;;;;5072888;28;20573;-67
2021/12/24 14:06:54;;;;;;;0.30;0.30;;;8.10;99.90;;;;;;5075279;28;20194;-67
2021/12/24 14:09:33;;;;;;;0.30;0.30;;;8.00;99.90;;;;;;5076541;28;20256;-67
2021/12/24 14:12:00;;;;;;;0.30;0.30;;;8.00;99.90;;;;;;5076843;28;20215;-67
2021/12/24 14:14:41;;;;;;;0.30;0.30;;;8.00;99.90;;;;;;5076499;28;20642;-67
2021/12/24 14:22:23;;;;;;;0.30;0.30;;;7.70;99.90;;;;;;5076489;28;20198;-67
2021/12/24 14:25:15;;;;;;;0.30;0.30;;;7.90;99.90;;;;;;5076381;28;20532;-67
2021/12/24 14:27:47;;;;;;;0.30;0.30;;;7.80;99.90;;;;;;5076197;28;20217;-67
2021/12/24 14:30:17;;;;;;;0.32;0.32;;;7.70;99.90;;;;;;5076274;28;20200;-67
2021/12/24 14:32:46;;;;;;;0.40;0.40;;;7.80;99.90;;;;;;5076397;28;20559;-67
2021/12/24 14:35:24;;;;;;;0.30;0.30;;;7.80;99.90;;;;;;5076160;28;20530;-67
2021/12/24 14:38:05;;;;;;;0.30;0.30;;;7.80;99.90;;;;;;5076358;28;20534;-67
2021/12/24 14:40:33;;;;;;;0.30;0.30;;;7.90;99.90;;;;;;5076167;28;20183;-67
2021/12/24 14:43:08;;;;;;;0.30;0.30;;;7.90;99.90;;;;;;5076095;28;20221;-67
2021/12/24 14:45:37;;;;;;;0.30;0.30;;;8.00;99.90;;;;;;5076525;28;20174;-67
2021/12/24 14:48:10;;;;;;;0.40;0.40;;;8.10;99.90;;;;;;5075852;28;20226;-67
2021/12/24 14:50:51;;;;;;;0.40;0.40;;;8.10;99.90;;;;;;5076062;28;20171;-67
2021/12/24 14:53:26;;;;;;;0.30;0.30;;;8.20;99.90;;;;;;5076122;28;20186;-67
2021/12/24 14:56:02;;;;;;;0.30;0.30;;;8.20;99.90;;;;;;5075749;28;20180;-67
2021/12/24 14:58:40;;;;;;;0.32;0.32;;;8.30;99.90;;;;;;5075487;28;20532;-67
2021/12/24 15:01:24;;;;;;;0.40;0.40;;;8.30;99.90;;;;;;5075798;28;20194;-67